sensor_id;sensor_type;location;lat;lon;timestamp;temperature;humidity
11242;DHT22;5678;52.370;9.006;2023-04-12T00:00:31;3.40;1.00
11242;DHT22;5678;52.370;9.006;2023-04-12T00:02:59;3.30;1.00
11242;DHT22;5678;52.370;9.006;2023-04-12T00:05:29;3.30;99.90
11242;DHT22;5678;52.370;9.006;2023-04-12T00:07:57;3.40;99.90
11242;DHT22;5678;52.370;9.006;2023-04-12T00:10:26;3.80;99.90
11242;DHT22;5678;52.370;9.006;2023-04-12T00:12:54;3.30;99.90
11242;DHT22;5678;52.370;9.006;2023-04-12T00:15:23;3.30;99.90
11242;DHT22;5678;52.370;9.006;2023-04-12T00:17:51;4.80;99.90
11242;DHT22;5678;52.370;9.006;2023-04-12T00:20:19;3.30;99.90
11242;DHT22;5678;52.370;9.006;2023-04-12T00:22:47;5.10;99.90
11242;DHT22;5678;52.370;9.006;2023-04-12T00:25:15;3.30;99.90
11242;DHT22;5678;52.370;9.006;2023-04-12T00:27:43;3.30;99.90
11242;DHT22;5678;52.370;9.006;2023-04-12T00:30:11;3.20;99.90
11242;DHT22;5678;52.370;9.006;2023-04-12T00:32:40;3.50;99.90
11242;DHT22;5678;52.370;9.006;2023-04-12T00:35:08;3.70;1.00
11242;DHT22;5678;52.370;9.006;2023-04-12T00:37:36;3.30;1.00
11242;DHT22;5678;52.370;9.006;2023-04-12T00:40:08;3.20;1.00
11242;DHT22;5678;52.370;9.006;2023-04-12T00:42:36;3.20;1.00
11242;DHT22;5678;52.370;9.006;2023-04-12T00:45:05;3.30;1.00
11242;DHT22;5678;52.370;9.006;2023-04-12T00:47:34;3.20;1.00
11242;DHT22;5678;52.370;9.006;2023-04-12T00:50:05;3.20;1.00
11242;DHT22;5678;52.370;9.006;2023-04-12T00:52:34;3.30;1.00
11242;DHT22;5678;52.370;9.006;2023-04-12T00:55:04;3.30;1.00
11242;DHT22;5678;52.370;9.006;2023-04-12T00:57:34;3.30;1.00
11242;DHT22;5678;52.370;9.006;2023-04-12T01:00:03;3.30;1.00
11242;DHT22;5678;52.370;9.006;2023-04-12T01:02:33;3.30;1.00
11242;DHT22;5678;52.370;9.006;2023-04-12T01:05:07;3.20;1.00
11242;DHT22;5678;52.370;9.006;2023-04-12T01:07:46;3.40;99.90
11242;DHT22;5678;52.370;9.006;2023-04-12T01:10:26;3.40;99.90
11242;DHT22;5678;52.370;9.006;2023-04-12T01:13:03;3.50;99.90
11242;DHT22;5678;52.370;9.006;2023-04-12T01:15:38;3.60;99.90
11242;DHT22;5678;52.370;9.006;2023-04-12T01:18:09;3.60;99.90
11242;DHT22;5678;52.370;9.006;2023-04-12T01:20:50;3.80;99.90
11242;DHT22;5678;52.370;9.006;2023-04-12T01:23:39;3.70;99.90
11242;DHT22;5678;52.370;9.006;2023-04-12T01:26:17;3.80;99.90
11242;DHT22;5678;52.370;9.006;2023-04-12T01:28:53;4.50;99.90
11242;DHT22;5678;52.370;9.006;2023-04-12T01:31:22;4.50;1.00
11242;DHT22;5678;52.370;9.006;2023-04-12T01:33:53;5.10;1.00
11242;DHT22;5678;52.370;9.006;2023-04-12T01:36:22;3.80;1.00
11242;DHT22;5678;52.370;9.006;2023-04-12T01:38:53;3.90;1.00
11242;DHT22;5678;52.370;9.006;2023-04-12T01:41:21;3.90;1.00
11242;DHT22;5678;52.370;9.006;2023-04-12T01:43:49;3.90;1.00
11242;DHT22;5678;52.370;9.006;2023-04-12T01:46:21;3.90;1.00
11242;DHT22;5678;52.370;9.006;2023-04-12T01:48:51;3.60;1.00
11242;DHT22;5678;52.370;9.006;2023-04-12T01:51:25;3.80;1.00
11242;DHT22;5678;52.370;9.006;2023-04-12T01:53:58;3.80;99.90
11242;DHT22;5678;52.370;9.006;2023-04-12T01:56:30;3.50;99.90
11242;DHT22;5678;52.370;9.006;2023-04-12T01:59:00;3.90;99.90
11242;DHT22;5678;52.370;9.006;2023-04-12T02:01:30;3.70;99.90
11242;DHT22;5678;52.370;9.006;2023-04-12T02:03:59;3.90;99.90
11242;DHT22;5678;52.370;9.006;2023-04-12T02:06:31;3.90;1.00
11242;DHT22;5678;52.370;9.006;2023-04-12T02:09:01;4.90;99.90
11242;DHT22;5678;52.370;9.006;2023-04-12T02:11:30;4.10;99.90
11242;DHT22;5678;52.370;9.006;2023-04-12T02:13:58;3.70;99.90
11242;DHT22;5678;52.370;9.006;2023-04-12T02:16:26;3.70;99.90
11242;DHT22;5678;52.370;9.006;2023-04-12T02:18:59;4.20;99.90
11242;DHT22;5678;52.370;9.006;2023-04-12T02:21:27;4.40;1.00
11242;DHT22;5678;52.370;9.006;2023-04-12T02:23:55;4.70;1.00
11242;DHT22;5678;52.370;9.006;2023-04-12T02:26:23;4.20;1.00
11242;DHT22;5678;52.370;9.006;2023-04-12T02:28:51;4.70;1.00
11242;DHT22;5678;52.370;9.006;2023-04-12T02:31:19;6.20;99.90
11242;DHT22;5678;52.370;9.006;2023-04-12T02:33:47;4.70;99.90
11242;DHT22;5678;52.370;9.006;2023-04-12T02:36:17;4.70;1.00
11242;DHT22;5678;52.370;9.006;2023-04-12T02:38:45;5.00;99.90
11242;DHT22;5678;52.370;9.006;2023-04-12T02:41:16;4.90;99.90
11242;DHT22;5678;52.370;9.006;2023-04-12T02:43:44;6.00;99.90
11242;DHT22;5678;52.370;9.006;2023-04-12T02:46:18;4.90;83.70
11242;DHT22;5678;52.370;9.006;2023-04-12T02:48:47;6.50;51.00
11242;DHT22;5678;52.370;9.006;2023-04-12T02:51:17;6.10;1.00
11242;DHT22;5678;52.370;9.006;2023-04-12T02:53:44;5.20;99.90
11242;DHT22;5678;52.370;9.006;2023-04-12T02:56:12;4.80;1.00
11242;DHT22;5678;52.370;9.006;2023-04-12T02:58:41;5.70;1.00
11242;DHT22;5678;52.370;9.006;2023-04-12T03:01:09;5.20;1.00
11242;DHT22;5678;52.370;9.006;2023-04-12T03:03:39;5.80;1.00
11242;DHT22;5678;52.370;9.006;2023-04-12T03:06:07;5.50;1.00
11242;DHT22;5678;52.370;9.006;2023-04-12T03:08:37;5.60;1.00
11242;DHT22;5678;52.370;9.006;2023-04-12T03:11:06;5.20;99.90
11242;DHT22;5678;52.370;9.006;2023-04-12T03:13:33;5.70;1.00
11242;DHT22;5678;52.370;9.006;2023-04-12T03:16:19;7.00;1.00
11242;DHT22;5678;52.370;9.006;2023-04-12T03:18:48;6.00;92.60
11242;DHT22;5678;52.370;9.006;2023-04-12T03:21:17;6.10;99.90
11242;DHT22;5678;52.370;9.006;2023-04-12T03:23:46;6.00;1.00
11242;DHT22;5678;52.370;9.006;2023-04-12T03:26:14;5.50;99.90
11242;DHT22;5678;52.370;9.006;2023-04-12T03:28:46;7.20;1.00
11242;DHT22;5678;52.370;9.006;2023-04-12T03:31:14;6.00;1.00
11242;DHT22;5678;52.370;9.006;2023-04-12T03:33:47;6.00;99.90
11242;DHT22;5678;52.370;9.006;2023-04-12T03:36:15;5.70;1.00
11242;DHT22;5678;52.370;9.006;2023-04-12T03:38:43;7.10;1.00
11242;DHT22;5678;52.370;9.006;2023-04-12T03:41:13;6.30;1.00
11242;DHT22;5678;52.370;9.006;2023-04-12T03:43:40;6.00;1.00
11242;DHT22;5678;52.370;9.006;2023-04-12T03:46:08;6.50;99.90
11242;DHT22;5678;52.370;9.006;2023-04-12T03:48:36;6.40;99.90
11242;DHT22;5678;52.370;9.006;2023-04-12T03:51:05;6.10;99.90
11242;DHT22;5678;52.370;9.006;2023-04-12T03:53:37;6.10;84.10
11242;DHT22;5678;52.370;9.006;2023-04-12T03:56:06;6.70;1.00
11242;DHT22;5678;52.370;9.006;2023-04-12T03:58:35;6.20;1.00
11242;DHT22;5678;52.370;9.006;2023-04-12T04:01:04;5.50;1.00
11242;DHT22;5678;52.370;9.006;2023-04-12T04:03:32;6.10;1.00
11242;DHT22;5678;52.370;9.006;2023-04-12T04:06:01;6.10;1.00
11242;DHT22;5678;52.370;9.006;2023-04-12T04:08:29;6.10;1.00
11242;DHT22;5678;52.370;9.006;2023-04-12T04:10:59;7.40;1.00
11242;DHT22;5678;52.370;9.006;2023-04-12T04:13:27;6.10;1.00
11242;DHT22;5678;52.370;9.006;2023-04-12T04:16:02;5.90;1.00
11242;DHT22;5678;52.370;9.006;2023-04-12T04:18:30;6.00;1.00
11242;DHT22;5678;52.370;9.006;2023-04-12T04:20:58;6.10;1.00
11242;DHT22;5678;52.370;9.006;2023-04-12T04:23:26;7.10;1.00
11242;DHT22;5678;52.370;9.006;2023-04-12T04:25:55;7.50;1.00
11242;DHT22;5678;52.370;9.006;2023-04-12T04:28:23;7.70;1.00
11242;DHT22;5678;52.370;9.006;2023-04-12T04:30:50;6.00;1.00
11242;DHT22;5678;52.370;9.006;2023-04-12T04:33:22;5.60;1.00
11242;DHT22;5678;52.370;9.006;2023-04-12T04:35:50;6.00;1.00
11242;DHT22;5678;52.370;9.006;2023-04-12T04:38:18;6.10;99.90
11242;DHT22;5678;52.370;9.006;2023-04-12T04:40:51;6.10;99.90
11242;DHT22;5678;52.370;9.006;2023-04-12T04:43:20;6.10;99.90
11242;DHT22;5678;52.370;9.006;2023-04-12T04:45:51;5.70;99.90
11242;DHT22;5678;52.370;9.006;2023-04-12T04:48:21;6.10;99.90
11242;DHT22;5678;52.370;9.006;2023-04-12T04:50:49;7.50;99.90
11242;DHT22;5678;52.370;9.006;2023-04-12T04:53:20;6.00;99.90
11242;DHT22;5678;52.370;9.006;2023-04-12T04:55:48;5.90;99.90
11242;DHT22;5678;52.370;9.006;2023-04-12T04:58:16;6.10;21.80
11242;DHT22;5678;52.370;9.006;2023-04-12T05:00:44;5.70;1.00
11242;DHT22;5678;52.370;9.006;2023-04-12T05:03:14;6.10;68.80
11242;DHT22;5678;52.370;9.006;2023-04-12T05:05:44;6.10;99.90
11242;DHT22;5678;52.370;9.006;2023-04-12T05:08:14;6.10;99.90
11242;DHT22;5678;52.370;9.006;2023-04-12T05:10:42;5.90;99.90
11242;DHT22;5678;52.370;9.006;2023-04-12T05:13:10;7.70;1.00
11242;DHT22;5678;52.370;9.006;2023-04-12T05:15:49;6.10;10.00
11242;DHT22;5678;52.370;9.006;2023-04-12T05:18:17;6.20;1.00
11242;DHT22;5678;52.370;9.006;2023-04-12T05:20:46;6.60;1.00
11242;DHT22;5678;52.370;9.006;2023-04-12T05:23:14;8.00;1.00
11242;DHT22;5678;52.370;9.006;2023-04-12T05:25:43;6.30;1.00
11242;DHT22;5678;52.370;9.006;2023-04-12T05:28:14;7.50;1.00
11242;DHT22;5678;52.370;9.006;2023-04-12T05:30:43;6.40;1.00
11242;DHT22;5678;52.370;9.006;2023-04-12T05:33:11;6.40;99.90
11242;DHT22;5678;52.370;9.006;2023-04-12T05:35:39;7.00;99.90
11242;DHT22;5678;52.370;9.006;2023-04-12T05:38:09;6.50;1.00
11242;DHT22;5678;52.370;9.006;2023-04-12T05:40:36;6.50;1.00
11242;DHT22;5678;52.370;9.006;2023-04-12T05:43:04;7.50;1.00
11242;DHT22;5678;52.370;9.006;2023-04-12T05:45:32;6.40;99.90
11242;DHT22;5678;52.370;9.006;2023-04-12T05:48:03;7.00;1.00
11242;DHT22;5678;52.370;9.006;2023-04-12T05:50:31;7.00;1.00
11242;DHT22;5678;52.370;9.006;2023-04-12T05:52:59;7.10;99.90
11242;DHT22;5678;52.370;9.006;2023-04-12T05:55:29;7.20;99.90
11242;DHT22;5678;52.370;9.006;2023-04-12T05:57:57;7.30;99.90
11242;DHT22;5678;52.370;9.006;2023-04-12T06:00:28;7.00;1.00
11242;DHT22;5678;52.370;9.006;2023-04-12T06:03:00;7.60;99.90
11242;DHT22;5678;52.370;9.006;2023-04-12T06:05:29;7.20;99.90
11242;DHT22;5678;52.370;9.006;2023-04-12T06:07:57;8.60;1.00
11242;DHT22;5678;52.370;9.006;2023-04-12T06:10:26;9.40;99.90
11242;DHT22;5678;52.370;9.006;2023-04-12T06:13:03;8.00;99.90
11242;DHT22;5678;52.370;9.006;2023-04-12T06:15:31;8.10;19.70
11242;DHT22;5678;52.370;9.006;2023-04-12T06:17:59;8.10;10.50
11242;DHT22;5678;52.370;9.006;2023-04-12T06:20:27;7.80;99.90
11242;DHT22;5678;52.370;9.006;2023-04-12T06:22:55;8.30;99.90
11242;DHT22;5678;52.370;9.006;2023-04-12T06:25:23;8.30;1.00
11242;DHT22;5678;52.370;9.006;2023-04-12T06:27:51;8.40;1.00
11242;DHT22;5678;52.370;9.006;2023-04-12T06:30:20;8.10;99.90
11242;DHT22;5678;52.370;9.006;2023-04-12T06:32:48;8.50;99.90
11242;DHT22;5678;52.370;9.006;2023-04-12T06:35:16;8.20;99.90
11242;DHT22;5678;52.370;9.006;2023-04-12T06:37:45;8.70;99.90
11242;DHT22;5678;52.370;9.006;2023-04-12T06:40:14;8.30;99.90
11242;DHT22;5678;52.370;9.006;2023-04-12T06:42:42;8.90;99.90
11242;DHT22;5678;52.370;9.006;2023-04-12T06:45:11;9.50;1.00
11242;DHT22;5678;52.370;9.006;2023-04-12T06:47:41;10.70;99.90
11242;DHT22;5678;52.370;9.006;2023-04-12T06:50:09;9.00;1.00
11242;DHT22;5678;52.370;9.006;2023-04-12T06:52:37;9.10;99.90
11242;DHT22;5678;52.370;9.006;2023-04-12T06:55:06;9.10;1.00
11242;DHT22;5678;52.370;9.006;2023-04-12T06:57:34;9.10;59.90
11242;DHT22;5678;52.370;9.006;2023-04-12T07:00:05;9.10;99.90
11242;DHT22;5678;52.370;9.006;2023-04-12T07:02:33;9.10;74.80
11242;DHT22;5678;52.370;9.006;2023-04-12T07:05:03;9.70;99.90
11242;DHT22;5678;52.370;9.006;2023-04-12T07:07:31;9.30;1.00
11242;DHT22;5678;52.370;9.006;2023-04-12T07:09:59;9.30;1.00
11242;DHT22;5678;52.370;9.006;2023-04-12T07:12:29;9.40;1.00
11242;DHT22;5678;52.370;9.006;2023-04-12T07:14:57;9.40;99.90
11242;DHT22;5678;52.370;9.006;2023-04-12T07:17:27;9.50;99.90
11242;DHT22;5678;52.370;9.006;2023-04-12T07:19:55;8.60;99.90
11242;DHT22;5678;52.370;9.006;2023-04-12T07:22:24;10.60;1.00
11242;DHT22;5678;52.370;9.006;2023-04-12T07:24:52;9.60;1.00
11242;DHT22;5678;52.370;9.006;2023-04-12T07:27:21;10.40;1.00
11242;DHT22;5678;52.370;9.006;2023-04-12T07:29:50;9.40;1.00
11242;DHT22;5678;52.370;9.006;2023-04-12T07:32:18;9.30;99.90
11242;DHT22;5678;52.370;9.006;2023-04-12T07:34:47;9.30;1.00
11242;DHT22;5678;52.370;9.006;2023-04-12T07:37:15;9.30;1.00
11242;DHT22;5678;52.370;9.006;2023-04-12T07:39:45;9.20;1.00
11242;DHT22;5678;52.370;9.006;2023-04-12T07:42:13;10.60;1.00
11242;DHT22;5678;52.370;9.006;2023-04-12T07:44:41;9.20;11.40
11242;DHT22;5678;52.370;9.006;2023-04-12T07:47:09;9.20;1.00
11242;DHT22;5678;52.370;9.006;2023-04-12T07:49:37;9.20;1.00
11242;DHT22;5678;52.370;9.006;2023-04-12T07:52:05;9.10;1.00
11242;DHT22;5678;52.370;9.006;2023-04-12T07:54:33;10.90;1.00
11242;DHT22;5678;52.370;9.006;2023-04-12T07:57:03;10.80;42.10
11242;DHT22;5678;52.370;9.006;2023-04-12T07:59:31;9.20;99.90
11242;DHT22;5678;52.370;9.006;2023-04-12T08:01:59;9.30;99.90
11242;DHT22;5678;52.370;9.006;2023-04-12T08:04:32;9.10;99.90
11242;DHT22;5678;52.370;9.006;2023-04-12T08:07:00;9.50;1.00
11242;DHT22;5678;52.370;9.006;2023-04-12T08:09:31;10.40;1.00
11242;DHT22;5678;52.370;9.006;2023-04-12T08:11:59;9.10;1.00
11242;DHT22;5678;52.370;9.006;2023-04-12T08:14:28;9.00;99.90
11242;DHT22;5678;52.370;9.006;2023-04-12T08:16:56;9.00;99.90
11242;DHT22;5678;52.370;9.006;2023-04-12T08:19:24;9.10;1.00
11242;DHT22;5678;52.370;9.006;2023-04-12T08:21:53;9.10;99.90
11242;DHT22;5678;52.370;9.006;2023-04-12T08:24:21;9.00;99.90
11242;DHT22;5678;52.370;9.006;2023-04-12T08:26:49;9.90;1.00
11242;DHT22;5678;52.370;9.006;2023-04-12T08:29:17;9.00;1.00
11242;DHT22;5678;52.370;9.006;2023-04-12T08:31:46;9.00;1.00
11242;DHT22;5678;52.370;9.006;2023-04-12T08:34:14;9.10;1.00
11242;DHT22;5678;52.370;9.006;2023-04-12T08:36:42;9.10;1.00
11242;DHT22;5678;52.370;9.006;2023-04-12T08:39:10;9.10;99.90
11242;DHT22;5678;52.370;9.006;2023-04-12T08:41:38;9.10;99.90
11242;DHT22;5678;52.370;9.006;2023-04-12T08:44:06;9.10;1.00
11242;DHT22;5678;52.370;9.006;2023-04-12T08:46:35;9.00;1.00
11242;DHT22;5678;52.370;9.006;2023-04-12T08:49:04;9.10;1.00
11242;DHT22;5678;52.370;9.006;2023-04-12T08:51:33;9.00;1.00
11242;DHT22;5678;52.370;9.006;2023-04-12T08:54:01;10.50;1.00
11242;DHT22;5678;52.370;9.006;2023-04-12T08:56:30;9.20;1.00
11242;DHT22;5678;52.370;9.006;2023-04-12T08:58:59;9.20;1.00
11242;DHT22;5678;52.370;9.006;2023-04-12T09:01:27;9.20;1.00
11242;DHT22;5678;52.370;9.006;2023-04-12T09:03:55;9.20;1.00
11242;DHT22;5678;52.370;9.006;2023-04-12T09:06:26;9.10;1.00
11242;DHT22;5678;52.370;9.006;2023-04-12T09:08:55;9.10;1.00
11242;DHT22;5678;52.370;9.006;2023-04-12T09:11:25;9.10;1.00
11242;DHT22;5678;52.370;9.006;2023-04-12T09:13:54;10.90;1.00
11242;DHT22;5678;52.370;9.006;2023-04-12T09:16:34;9.10;1.00
11242;DHT22;5678;52.370;9.006;2023-04-12T09:19:02;9.10;1.00
11242;DHT22;5678;52.370;9.006;2023-04-12T09:21:33;8.50;1.00
11242;DHT22;5678;52.370;9.006;2023-04-12T09:24:04;10.00;1.00
11242;DHT22;5678;52.370;9.006;2023-04-12T09:26:39;9.20;1.00
11242;DHT22;5678;52.370;9.006;2023-04-12T09:29:21;9.20;1.00
11242;DHT22;5678;52.370;9.006;2023-04-12T09:31:55;9.30;1.00
11242;DHT22;5678;52.370;9.006;2023-04-12T09:34:23;9.30;1.00
11242;DHT22;5678;52.370;9.006;2023-04-12T09:36:55;9.30;1.00
11242;DHT22;5678;52.370;9.006;2023-04-12T09:39:30;9.40;1.00
11242;DHT22;5678;52.370;9.006;2023-04-12T09:42:06;9.40;1.00
11242;DHT22;5678;52.370;9.006;2023-04-12T09:44:56;9.30;1.00
11242;DHT22;5678;52.370;9.006;2023-04-12T09:47:35;9.40;1.00
11242;DHT22;5678;52.370;9.006;2023-04-12T09:50:05;9.40;1.00
11242;DHT22;5678;52.370;9.006;2023-04-12T09:52:38;9.50;1.00
11242;DHT22;5678;52.370;9.006;2023-04-12T09:55:08;8.90;1.00
11242;DHT22;5678;52.370;9.006;2023-04-12T09:57:37;9.80;1.00
11242;DHT22;5678;52.370;9.006;2023-04-12T10:00:12;9.60;1.00
11242;DHT22;5678;52.370;9.006;2023-04-12T10:02:44;10.20;1.00
11242;DHT22;5678;52.370;9.006;2023-04-12T10:05:15;10.30;1.00
11242;DHT22;5678;52.370;9.006;2023-04-12T10:07:46;10.50;1.00
11242;DHT22;5678;52.370;9.006;2023-04-12T10:10:15;10.60;1.00
11242;DHT22;5678;52.370;9.006;2023-04-12T10:12:46;11.00;1.00
11242;DHT22;5678;52.370;9.006;2023-04-12T10:15:15;10.60;99.90
11242;DHT22;5678;52.370;9.006;2023-04-12T10:17:45;11.30;1.00
11242;DHT22;5678;52.370;9.006;2023-04-12T10:20:15;11.40;1.00
11242;DHT22;5678;52.370;9.006;2023-04-12T10:22:46;10.30;99.90
11242;DHT22;5678;52.370;9.006;2023-04-12T10:25:16;10.60;1.00
11242;DHT22;5678;52.370;9.006;2023-04-12T10:27:45;10.60;1.00
11242;DHT22;5678;52.370;9.006;2023-04-12T10:30:24;10.30;1.00
11242;DHT22;5678;52.370;9.006;2023-04-12T10:33:15;10.40;1.00
11242;DHT22;5678;52.370;9.006;2023-04-12T10:35:54;10.30;99.90
11242;DHT22;5678;52.370;9.006;2023-04-12T10:38:25;10.10;99.90
11242;DHT22;5678;52.370;9.006;2023-04-12T10:41:08;9.90;99.90
11242;DHT22;5678;52.370;9.006;2023-04-12T10:43:37;10.00;1.00
11242;DHT22;5678;52.370;9.006;2023-04-12T10:46:05;10.00;99.90
11242;DHT22;5678;52.370;9.006;2023-04-12T10:48:34;10.20;99.90
11242;DHT22;5678;52.370;9.006;2023-04-12T10:51:11;10.00;42.80
11242;DHT22;5678;52.370;9.006;2023-04-12T10:53:41;12.30;99.90
11242;DHT22;5678;52.370;9.006;2023-04-12T10:56:35;10.50;99.90
11242;DHT22;5678;52.370;9.006;2023-04-12T10:59:04;11.00;1.00
11242;DHT22;5678;52.370;9.006;2023-04-12T11:01:33;11.20;1.00
11242;DHT22;5678;52.370;9.006;2023-04-12T11:04:12;10.70;1.00
11242;DHT22;5678;52.370;9.006;2023-04-12T11:06:42;11.30;99.90
11242;DHT22;5678;52.370;9.006;2023-04-12T11:09:21;11.40;1.00
11242;DHT22;5678;52.370;9.006;2023-04-12T11:11:56;11.50;1.00
11242;DHT22;5678;52.370;9.006;2023-04-12T11:14:28;11.50;99.90
11242;DHT22;5678;52.370;9.006;2023-04-12T11:17:22;11.40;99.90
11242;DHT22;5678;52.370;9.006;2023-04-12T11:19:56;11.60;1.00
11242;DHT22;5678;52.370;9.006;2023-04-12T11:22:27;11.70;99.90
11242;DHT22;5678;52.370;9.006;2023-04-12T11:24:58;13.80;45.80
11242;DHT22;5678;52.370;9.006;2023-04-12T11:27:28;11.50;1.00
11242;DHT22;5678;52.370;9.006;2023-04-12T11:29:58;11.90;1.00
11242;DHT22;5678;52.370;9.006;2023-04-12T11:32:28;11.90;1.00
11242;DHT22;5678;52.370;9.006;2023-04-12T11:34:57;12.00;1.00
11242;DHT22;5678;52.370;9.006;2023-04-12T11:37:25;11.70;1.00
11242;DHT22;5678;52.370;9.006;2023-04-12T11:39:57;11.70;1.00
11242;DHT22;5678;52.370;9.006;2023-04-12T11:42:26;13.20;1.00
11242;DHT22;5678;52.370;9.006;2023-04-12T11:44:55;11.80;1.00
11242;DHT22;5678;52.370;9.006;2023-04-12T11:47:30;13.90;1.00
11242;DHT22;5678;52.370;9.006;2023-04-12T11:49:58;13.00;17.60
11242;DHT22;5678;52.370;9.006;2023-04-12T11:52:28;13.20;1.00
11242;DHT22;5678;52.370;9.006;2023-04-12T11:55:00;12.30;1.00
11242;DHT22;5678;52.370;9.006;2023-04-12T11:57:30;12.50;1.00
11242;DHT22;5678;52.370;9.006;2023-04-12T11:59:59;14.30;99.90
11242;DHT22;5678;52.370;9.006;2023-04-12T12:02:27;13.20;1.00
11242;DHT22;5678;52.370;9.006;2023-04-12T12:05:02;12.60;1.00
11242;DHT22;5678;52.370;9.006;2023-04-12T12:07:32;12.90;1.00
11242;DHT22;5678;52.370;9.006;2023-04-12T12:10:03;13.50;1.00
11242;DHT22;5678;52.370;9.006;2023-04-12T12:12:32;12.90;1.00
11242;DHT22;5678;52.370;9.006;2023-04-12T12:15:01;14.60;1.00
11242;DHT22;5678;52.370;9.006;2023-04-12T12:17:29;14.50;99.90
11242;DHT22;5678;52.370;9.006;2023-04-12T12:19:57;12.70;99.90
11242;DHT22;5678;52.370;9.006;2023-04-12T12:22:27;14.20;1.00
11242;DHT22;5678;52.370;9.006;2023-04-12T12:24:56;13.90;95.00
11242;DHT22;5678;52.370;9.006;2023-04-12T12:27:35;14.00;1.00
11242;DHT22;5678;52.370;9.006;2023-04-12T12:30:06;12.90;1.00
11242;DHT22;5678;52.370;9.006;2023-04-12T12:32:36;12.50;1.00
11242;DHT22;5678;52.370;9.006;2023-04-12T12:35:08;12.80;99.90
11242;DHT22;5678;52.370;9.006;2023-04-12T12:37:36;12.40;1.00
11242;DHT22;5678;52.370;9.006;2023-04-12T12:40:06;13.70;1.00
11242;DHT22;5678;52.370;9.006;2023-04-12T12:42:44;12.40;1.00
11242;DHT22;5678;52.370;9.006;2023-04-12T12:45:13;13.50;1.00
11242;DHT22;5678;52.370;9.006;2023-04-12T12:47:45;12.40;99.90
11242;DHT22;5678;52.370;9.006;2023-04-12T12:50:14;12.30;1.00
11242;DHT22;5678;52.370;9.006;2023-04-12T12:52:44;12.50;1.00
11242;DHT22;5678;52.370;9.006;2023-04-12T12:55:13;13.00;99.90
11242;DHT22;5678;52.370;9.006;2023-04-12T12:57:43;12.00;1.00
11242;DHT22;5678;52.370;9.006;2023-04-12T13:00:32;13.40;1.00
11242;DHT22;5678;52.370;9.006;2023-04-12T13:03:00;12.70;1.00
11242;DHT22;5678;52.370;9.006;2023-04-12T13:05:29;13.00;99.90
11242;DHT22;5678;52.370;9.006;2023-04-12T13:07:57;13.40;1.00
11242;DHT22;5678;52.370;9.006;2023-04-12T13:10:33;12.20;1.00
11242;DHT22;5678;52.370;9.006;2023-04-12T13:13:03;13.00;99.90
11242;DHT22;5678;52.370;9.006;2023-04-12T13:15:31;13.20;99.90
11242;DHT22;5678;52.370;9.006;2023-04-12T13:17:58;12.60;1.00
11242;DHT22;5678;52.370;9.006;2023-04-12T13:20:27;12.60;99.90
11242;DHT22;5678;52.370;9.006;2023-04-12T13:22:55;12.60;1.00
11242;DHT22;5678;52.370;9.006;2023-04-12T13:25:23;12.80;99.90
11242;DHT22;5678;52.370;9.006;2023-04-12T13:27:51;12.60;1.00
11242;DHT22;5678;52.370;9.006;2023-04-12T13:30:21;13.40;99.90
11242;DHT22;5678;52.370;9.006;2023-04-12T13:32:49;12.80;1.00
11242;DHT22;5678;52.370;9.006;2023-04-12T13:35:17;12.90;1.00
11242;DHT22;5678;52.370;9.006;2023-04-12T13:37:45;12.40;1.00
11242;DHT22;5678;52.370;9.006;2023-04-12T13:40:13;13.10;1.00
11242;DHT22;5678;52.370;9.006;2023-04-12T13:42:41;12.80;1.00
11242;DHT22;5678;52.370;9.006;2023-04-12T13:45:10;13.50;1.00
11242;DHT22;5678;52.370;9.006;2023-04-12T13:47:39;12.20;1.00
11242;DHT22;5678;52.370;9.006;2023-04-12T13:50:08;14.50;1.00
11242;DHT22;5678;52.370;9.006;2023-04-12T13:52:36;12.20;99.90
11242;DHT22;5678;52.370;9.006;2023-04-12T13:55:05;12.40;1.00
11242;DHT22;5678;52.370;9.006;2023-04-12T13:57:34;12.00;1.00
11242;DHT22;5678;52.370;9.006;2023-04-12T14:00:02;12.50;99.90
11242;DHT22;5678;52.370;9.006;2023-04-12T14:02:30;12.00;99.90
11242;DHT22;5678;52.370;9.006;2023-04-12T14:05:00;13.80;99.90
11242;DHT22;5678;52.370;9.006;2023-04-12T14:07:28;13.50;1.00
11242;DHT22;5678;52.370;9.006;2023-04-12T14:09:56;13.10;1.00
11242;DHT22;5678;52.370;9.006;2023-04-12T14:12:24;13.60;1.00
11242;DHT22;5678;52.370;9.006;2023-04-12T14:14:52;11.90;1.00
11242;DHT22;5678;52.370;9.006;2023-04-12T14:17:20;12.30;1.00
11242;DHT22;5678;52.370;9.006;2023-04-12T14:19:48;12.10;1.00
11242;DHT22;5678;52.370;9.006;2023-04-12T14:22:18;12.70;1.00
11242;DHT22;5678;52.370;9.006;2023-04-12T14:24:46;12.30;1.00
11242;DHT22;5678;52.370;9.006;2023-04-12T14:27:14;11.80;1.00
11242;DHT22;5678;52.370;9.006;2023-04-12T14:29:43;12.30;1.00
11242;DHT22;5678;52.370;9.006;2023-04-12T14:32:12;12.40;1.00
11242;DHT22;5678;52.370;9.006;2023-04-12T14:34:40;14.10;1.00
11242;DHT22;5678;52.370;9.006;2023-04-12T14:37:09;12.10;1.00
11242;DHT22;5678;52.370;9.006;2023-04-12T14:39:38;14.00;1.00
11242;DHT22;5678;52.370;9.006;2023-04-12T14:42:06;13.80;1.00
11242;DHT22;5678;52.370;9.006;2023-04-12T14:44:34;12.90;1.00
11242;DHT22;5678;52.370;9.006;2023-04-12T14:47:02;14.20;1.00
11242;DHT22;5678;52.370;9.006;2023-04-12T14:49:30;13.30;1.00
11242;DHT22;5678;52.370;9.006;2023-04-12T14:51:59;11.90;1.00
11242;DHT22;5678;52.370;9.006;2023-04-12T14:54:27;11.90;1.00
11242;DHT22;5678;52.370;9.006;2023-04-12T14:56:56;12.70;1.00
11242;DHT22;5678;52.370;9.006;2023-04-12T14:59:24;12.00;1.00
11242;DHT22;5678;52.370;9.006;2023-04-12T15:01:53;11.50;1.00
11242;DHT22;5678;52.370;9.006;2023-04-12T15:04:22;11.70;10.30
11242;DHT22;5678;52.370;9.006;2023-04-12T15:06:50;11.70;1.00
11242;DHT22;5678;52.370;9.006;2023-04-12T15:09:18;13.20;35.20
11242;DHT22;5678;52.370;9.006;2023-04-12T15:11:49;11.80;1.00
11242;DHT22;5678;52.370;9.006;2023-04-12T15:14:22;12.10;1.00
11242;DHT22;5678;52.370;9.006;2023-04-12T15:16:50;11.90;1.00
11242;DHT22;5678;52.370;9.006;2023-04-12T15:19:18;12.70;1.00
11242;DHT22;5678;52.370;9.006;2023-04-12T15:21:49;12.10;1.00
11242;DHT22;5678;52.370;9.006;2023-04-12T15:24:17;13.90;1.00
11242;DHT22;5678;52.370;9.006;2023-04-12T15:26:47;12.70;1.00
11242;DHT22;5678;52.370;9.006;2023-04-12T15:29:17;13.90;1.00
11242;DHT22;5678;52.370;9.006;2023-04-12T15:31:47;12.40;1.00
11242;DHT22;5678;52.370;9.006;2023-04-12T15:34:16;12.60;1.00
11242;DHT22;5678;52.370;9.006;2023-04-12T15:36:44;13.90;1.00
11242;DHT22;5678;52.370;9.006;2023-04-12T15:39:12;12.60;1.00
11242;DHT22;5678;52.370;9.006;2023-04-12T15:41:41;12.80;1.00
11242;DHT22;5678;52.370;9.006;2023-04-12T15:44:10;12.80;1.00
11242;DHT22;5678;52.370;9.006;2023-04-12T15:46:39;12.90;1.00
11242;DHT22;5678;52.370;9.006;2023-04-12T15:49:09;13.60;1.00
11242;DHT22;5678;52.370;9.006;2023-04-12T15:51:37;12.80;1.00
11242;DHT22;5678;52.370;9.006;2023-04-12T15:54:05;13.80;1.00
11242;DHT22;5678;52.370;9.006;2023-04-12T15:56:33;12.80;1.00
11242;DHT22;5678;52.370;9.006;2023-04-12T15:59:03;12.80;1.00
11242;DHT22;5678;52.370;9.006;2023-04-12T16:01:31;12.80;1.00
11242;DHT22;5678;52.370;9.006;2023-04-12T16:04:01;13.10;1.00
11242;DHT22;5678;52.370;9.006;2023-04-12T16:06:32;12.50;1.00
11242;DHT22;5678;52.370;9.006;2023-04-12T16:09:01;12.70;1.00
11242;DHT22;5678;52.370;9.006;2023-04-12T16:11:30;13.30;1.00
11242;DHT22;5678;52.370;9.006;2023-04-12T16:13:59;12.70;1.00
11242;DHT22;5678;52.370;9.006;2023-04-12T16:16:27;12.60;1.00
11242;DHT22;5678;52.370;9.006;2023-04-12T16:18:55;13.30;1.00
11242;DHT22;5678;52.370;9.006;2023-04-12T16:21:25;12.60;1.00